sensor_id;sensor_type;location;lat;lon;timestamp;pressure;altitude;pressure_sealevel;temperature;humidity
62524;BME280;53689;56.878;60.672;2023-02-13T00:00:00;98460.72;;;22.38;19.41
62524;BME280;53689;56.878;60.672;2023-02-13T00:02:32;98461.75;;;22.37;19.59
62524;BME280;53689;56.878;60.672;2023-02-13T00:05:00;98450.97;;;22.37;19.12
62524;BME280;53689;56.878;60.672;2023-02-13T00:07:27;98456.38;;;22.37;19.63
62524;BME280;53689;56.878;60.672;2023-02-13T00:09:55;98437.63;;;22.28;18.06
62524;BME280;53689;56.878;60.672;2023-02-13T00:12:22;98446.00;;;22.34;19.74
62524;BME280;53689;56.878;60.672;2023-02-13T00:14:50;98442.88;;;22.37;19.58
62524;BME280;53689;56.878;60.672;2023-02-13T00:17:20;98445.59;;;22.37;19.55
62524;BME280;53689;56.878;60.672;2023-02-13T00:19:50;98442.44;;;22.33;19.37
62524;BME280;53689;56.878;60.672;2023-02-13T00:22:17;98447.66;;;22.35;19.57
62524;BME280;53689;56.878;60.672;2023-02-13T00:24:45;98443.09;;;22.35;19.81
62524;BME280;53689;56.878;60.672;2023-02-13T00:27:13;98439.38;;;22.36;19.89
62524;BME280;53689;56.878;60.672;2023-02-13T00:29:40;98427.28;;;22.32;19.62
62524;BME280;53689;56.878;60.672;2023-02-13T00:32:08;98436.03;;;22.34;18.99
62524;BME280;53689;56.878;60.672;2023-02-13T00:34:36;98437.50;;;22.37;19.89
62524;BME280;53689;56.878;60.672;2023-02-13T00:37:05;98435.00;;;22.35;20.04
62524;BME280;53689;56.878;60.672;2023-02-13T00:39:33;98432.09;;;22.37;19.42
62524;BME280;53689;56.878;60.672;2023-02-13T00:42:00;98430.06;;;22.39;19.67
62524;BME280;53689;56.878;60.672;2023-02-13T00:44:28;98421.31;;;22.37;19.90
62524;BME280;53689;56.878;60.672;2023-02-13T00:46:56;98423.19;;;22.36;20.09
62524;BME280;53689;56.878;60.672;2023-02-13T00:49:23;98419.00;;;22.34;19.39
62524;BME280;53689;56.878;60.672;2023-02-13T00:51:51;98424.00;;;22.37;19.78
62524;BME280;53689;56.878;60.672;2023-02-13T00:54:22;98415.91;;;22.37;19.94
62524;BME280;53689;56.878;60.672;2023-02-13T00:56:50;98415.91;;;22.37;18.59
62524;BME280;53689;56.878;60.672;2023-02-13T00:59:17;98414.88;;;22.38;19.11
62524;BME280;53689;56.878;60.672;2023-02-13T01:01:45;98413.22;;;22.37;19.56
62524;BME280;53689;56.878;60.672;2023-02-13T01:04:13;98408.66;;;22.37;20.26
62524;BME280;53689;56.878;60.672;2023-02-13T01:06:41;98413.44;;;22.35;19.46
62524;BME280;53689;56.878;60.672;2023-02-13T01:09:09;98422.34;;;22.36;20.10
62524;BME280;53689;56.878;60.672;2023-02-13T01:11:42;98414.25;;;22.36;19.69
62524;BME280;53689;56.878;60.672;2023-02-13T01:14:09;98423.19;;;22.36;19.45
62524;BME280;53689;56.878;60.672;2023-02-13T01:16:37;98425.25;;;22.34;19.17
62524;BME280;53689;56.878;60.672;2023-02-13T01:19:04;98427.09;;;22.34;18.60
62524;BME280;53689;56.878;60.672;2023-02-13T01:21:32;98426.25;;;22.33;18.73
62524;BME280;53689;56.878;60.672;2023-02-13T01:24:03;98427.09;;;22.34;18.64
62524;BME280;53689;56.878;60.672;2023-02-13T01:26:31;98427.72;;;22.36;19.56
62524;BME280;53689;56.878;60.672;2023-02-13T01:29:00;98426.91;;;22.35;19.76
62524;BME280;53689;56.878;60.672;2023-02-13T01:31:27;98433.13;;;22.36;18.48
62524;BME280;53689;56.878;60.672;2023-02-13T01:33:56;98434.16;;;22.35;19.78
62524;BME280;53689;56.878;60.672;2023-02-13T01:36:25;98437.91;;;22.34;19.20
62524;BME280;53689;56.878;60.672;2023-02-13T01:38:54;98442.88;;;22.37;19.63
62524;BME280;53689;56.878;60.672;2023-02-13T01:41:24;98440.41;;;22.35;19.01
62524;BME280;53689;56.878;60.672;2023-02-13T01:43:53;98437.91;;;22.34;19.49
62524;BME280;53689;56.878;60.672;2023-02-13T01:46:26;98433.53;;;22.33;19.76
62524;BME280;53689;56.878;60.672;2023-02-13T01:48:57;98436.84;;;22.35;19.59
62524;BME280;53689;56.878;60.672;2023-02-13T01:51:30;98428.13;;;22.33;18.77
62524;BME280;53689;56.878;60.672;2023-02-13T01:54:03;98430.44;;;22.36;20.01
62524;BME280;53689;56.878;60.672;2023-02-13T01:56:35;98426.69;;;22.37;19.59
62524;BME280;53689;56.878;60.672;2023-02-13T01:59:07;98425.88;;;22.36;18.18
62524;BME280;53689;56.878;60.672;2023-02-13T02:01:37;98423.81;;;22.38;19.44
62524;BME280;53689;56.878;60.672;2023-02-13T02:04:09;98424.84;;;22.37;20.23
62524;BME280;53689;56.878;60.672;2023-02-13T02:06:40;98426.50;;;22.38;20.39
62524;BME280;53689;56.878;60.672;2023-02-13T02:09:12;98425.88;;;22.36;19.50
62524;BME280;53689;56.878;60.672;2023-02-13T02:11:45;98422.97;;;22.38;19.74
62524;BME280;53689;56.878;60.672;2023-02-13T02:14:16;98417.78;;;22.36;19.89
62524;BME280;53689;56.878;60.672;2023-02-13T02:16:46;98413.22;;;22.37;19.03
62524;BME280;53689;56.878;60.672;2023-02-13T02:19:18;98415.91;;;22.37;19.52
62524;BME280;53689;56.878;60.672;2023-02-13T02:22:09;98407.19;;;22.35;19.30
62524;BME280;53689;56.878;60.672;2023-02-13T02:28:09;98413.63;;;22.34;19.40
62524;BME280;53689;56.878;60.672;2023-02-13T02:33:55;98409.25;;;22.33;19.50
62524;BME280;53689;56.878;60.672;2023-02-13T02:36:42;98405.34;;;22.35;19.14
62524;BME280;53689;56.878;60.672;2023-02-13T02:39:20;98404.31;;;22.36;19.91
62524;BME280;53689;56.878;60.672;2023-02-13T02:41:59;98401.88;;;22.13;17.81
62524;BME280;53689;56.878;60.672;2023-02-13T02:44:34;98403.53;;;22.07;19.89
62524;BME280;53689;56.878;60.672;2023-02-13T02:47:10;98407.75;;;22.23;19.27
62524;BME280;53689;56.878;60.672;2023-02-13T02:49:50;98405.69;;;22.25;19.10
62524;BME280;53689;56.878;60.672;2023-02-13T02:52:26;98407.97;;;22.28;19.52
62524;BME280;53689;56.878;60.672;2023-02-13T02:55:01;98408.63;;;22.30;19.60
62524;BME280;53689;56.878;60.672;2023-02-13T02:57:34;98410.66;;;22.28;19.86
62524;BME280;53689;56.878;60.672;2023-02-13T03:00:04;98409.84;;;22.28;19.72
62524;BME280;53689;56.878;60.672;2023-02-13T03:02:33;98402.59;;;22.28;19.55
62524;BME280;53689;56.878;60.672;2023-02-13T03:05:03;98406.53;;;22.26;19.54
62524;BME280;53689;56.878;60.672;2023-02-13T03:07:31;98405.28;;;22.28;19.25
62524;BME280;53689;56.878;60.672;2023-02-13T03:10:01;98400.28;;;22.25;18.50
62524;BME280;53689;56.878;60.672;2023-02-13T03:12:35;98401.50;;;22.23;19.50
62524;BME280;53689;56.878;60.672;2023-02-13T03:15:04;98399.66;;;22.23;19.80
62524;BME280;53689;56.878;60.672;2023-02-13T03:17:32;98398.63;;;22.24;19.00
62524;BME280;53689;56.878;60.672;2023-02-13T03:20:11;98401.41;;;21.74;19.27
62524;BME280;53689;56.878;60.672;2023-02-13T03:22:45;98398.16;;;22.14;19.92
62524;BME280;53689;56.878;60.672;2023-02-13T03:25:21;98396.50;;;22.13;18.51
62524;BME280;53689;56.878;60.672;2023-02-13T03:27:56;98398.97;;;22.14;19.71
62524;BME280;53689;56.878;60.672;2023-02-13T03:30:33;98405.84;;;22.17;20.00
62524;BME280;53689;56.878;60.672;2023-02-13T03:33:12;98399.03;;;22.21;20.11
62524;BME280;53689;56.878;60.672;2023-02-13T03:35:50;98405.69;;;22.25;19.62
62524;BME280;53689;56.878;60.672;2023-02-13T03:38:23;98404.88;;;22.25;19.59
62524;BME280;53689;56.878;60.672;2023-02-13T03:40:57;98412.31;;;22.23;18.62
62524;BME280;53689;56.878;60.672;2023-02-13T03:43:31;98405.69;;;22.25;19.78
62524;BME280;53689;56.878;60.672;2023-02-13T03:46:05;98408.56;;;22.24;20.09
62524;BME280;53689;56.878;60.672;2023-02-13T03:48:35;98399.47;;;22.25;19.73
62524;BME280;53689;56.878;60.672;2023-02-13T03:51:07;98401.50;;;22.23;20.01
62524;BME280;53689;56.878;60.672;2023-02-13T03:53:37;98406.72;;;22.24;20.06
62524;BME280;53689;56.878;60.672;2023-02-13T03:56:12;98403.00;;;22.25;19.83
62524;BME280;53689;56.878;60.672;2023-02-13T03:58:45;98401.31;;;22.24;19.57
62524;BME280;53689;56.878;60.672;2023-02-13T04:01:17;98399.16;;;22.06;18.87
62524;BME280;53689;56.878;60.672;2023-02-13T04:03:51;98397.78;;;21.88;19.28
62524;BME280;53689;56.878;60.672;2023-02-13T04:06:28;98400.59;;;22.09;19.03
62524;BME280;53689;56.878;60.672;2023-02-13T04:08:56;98393.16;;;22.11;19.00
62524;BME280;53689;56.878;60.672;2023-02-13T04:11:28;98390.06;;;22.14;19.39
62524;BME280;53689;56.878;60.672;2023-02-13T04:14:00;98396.72;;;22.18;19.22
62524;BME280;53689;56.878;60.672;2023-02-13T04:16:30;98395.91;;;22.17;19.28
62524;BME280;53689;56.878;60.672;2023-02-13T04:19:00;98395.28;;;22.15;19.72
62524;BME280;53689;56.878;60.672;2023-02-13T04:21:33;98389.66;;;22.17;19.85
62524;BME280;53689;56.878;60.672;2023-02-13T04:24:01;98389.66;;;22.17;19.75
62524;BME280;53689;56.878;60.672;2023-02-13T04:26:32;98389.66;;;22.17;20.25
62524;BME280;53689;56.878;60.672;2023-02-13T04:29:01;98390.25;;;22.12;19.25
62524;BME280;53689;56.878;60.672;2023-02-13T04:31:29;98383.66;;;22.15;20.22
62524;BME280;53689;56.878;60.672;2023-02-13T04:33:57;98383.38;;;22.10;19.13
62524;BME280;53689;56.878;60.672;2023-02-13T04:36:25;98385.16;;;22.24;19.77
62524;BME280;53689;56.878;60.672;2023-02-13T04:38:54;98382.63;;;22.23;19.83
62524;BME280;53689;56.878;60.672;2023-02-13T04:41:21;98386.16;;;22.16;18.92
62524;BME280;53689;56.878;60.672;2023-02-13T04:43:49;98386.97;;;22.17;19.28
62524;BME280;53689;56.878;60.672;2023-02-13T04:46:17;98390.22;;;22.06;19.94
62524;BME280;53689;56.878;60.672;2023-02-13T04:48:44;98384.53;;;21.94;20.55
62524;BME280;53689;56.878;60.672;2023-02-13T04:51:12;98389.78;;;22.02;19.76
62524;BME280;53689;56.878;60.672;2023-02-13T04:53:40;98392.75;;;22.14;18.33
62524;BME280;53689;56.878;60.672;2023-02-13T04:56:09;98377.38;;;22.08;18.33
62524;BME280;53689;56.878;60.672;2023-02-13T04:58:36;98380.94;;;22.15;18.02
62524;BME280;53689;56.878;60.672;2023-02-13T05:01:11;98384.69;;;22.14;18.78
62524;BME280;53689;56.878;60.672;2023-02-13T05:03:38;98376.59;;;22.14;17.24
62524;BME280;53689;56.878;60.672;2023-02-13T05:06:06;98369.31;;;22.14;18.70
62524;BME280;53689;56.878;60.672;2023-02-13T05:08:35;98375.81;;;22.20;17.82
62524;BME280;53689;56.878;60.672;2023-02-13T05:11:02;98378.41;;;22.07;18.74
62524;BME280;53689;56.878;60.672;2023-02-13T05:13:32;98377.63;;;22.13;19.81
62524;BME280;53689;56.878;60.672;2023-02-13T05:16:00;98375.38;;;22.16;17.89
62524;BME280;53689;56.878;60.672;2023-02-13T05:18:27;98379.13;;;22.22;17.51
62524;BME280;53689;56.878;60.672;2023-02-13T05:20:55;98370.81;;;22.24;18.63
62524;BME280;53689;56.878;60.672;2023-02-13T05:23:23;98381.41;;;22.25;18.65
62524;BME280;53689;56.878;60.672;2023-02-13T05:25:51;98374.59;;;22.29;18.37
62524;BME280;53689;56.878;60.672;2023-02-13T05:28:18;98376.22;;;22.24;17.80
62524;BME280;53689;56.878;60.672;2023-02-13T05:30:48;98375.00;;;22.26;18.05
62524;BME280;53689;56.878;60.672;2023-02-13T05:33:15;98384.53;;;22.22;19.00
62524;BME280;53689;56.878;60.672;2023-02-13T05:35:43;98376.63;;;22.21;17.93
62524;BME280;53689;56.878;60.672;2023-02-13T05:38:10;98378.72;;;22.25;18.26
62524;BME280;53689;56.878;60.672;2023-02-13T05:40:38;98372.84;;;22.15;18.21
62524;BME280;53689;56.878;60.672;2023-02-13T05:43:06;98378.66;;;22.12;18.59
62524;BME280;53689;56.878;60.672;2023-02-13T05:45:33;98374.31;;;22.17;17.33
62524;BME280;53689;56.878;60.672;2023-02-13T05:48:02;98369.53;;;22.13;17.67
62524;BME280;53689;56.878;60.672;2023-02-13T05:50:30;98379.00;;;22.02;17.75
62524;BME280;53689;56.878;60.672;2023-02-13T05:52:58;98374.91;;;22.06;17.16
62524;BME280;53689;56.878;60.672;2023-02-13T05:55:26;98375.53;;;22.08;17.38
62524;BME280;53689;56.878;60.672;2023-02-13T05:57:55;98379.28;;;22.14;16.97
62524;BME280;53689;56.878;60.672;2023-02-13T06:00:23;98376.59;;;22.14;17.38
62524;BME280;53689;56.878;60.672;2023-02-13T06:02:51;98374.34;;;22.24;16.98
62524;BME280;53689;56.878;60.672;2023-02-13T06:05:20;98380.28;;;22.48;16.48
62524;BME280;53689;56.878;60.672;2023-02-13T06:07:49;98363.16;;;22.27;18.14
62524;BME280;53689;56.878;60.672;2023-02-13T06:10:17;98368.97;;;22.24;17.55
62524;BME280;53689;56.878;60.672;2023-02-13T06:12:45;98360.44;;;22.21;16.83
62524;BME280;53689;56.878;60.672;2023-02-13T06:15:13;98372.09;;;22.28;17.04
62524;BME280;53689;56.878;60.672;2023-02-13T06:17:41;98372.69;;;22.23;17.57
62524;BME280;53689;56.878;60.672;2023-02-13T06:20:09;98373.31;;;22.25;17.16
62524;BME280;53689;56.878;60.672;2023-02-13T06:22:38;98375.84;;;22.34;17.12
62524;BME280;53689;56.878;60.672;2023-02-13T06:25:06;98373.19;;;22.40;17.25
62524;BME280;53689;56.878;60.672;2023-02-13T06:27:34;98376.28;;;22.30;17.96
62524;BME280;53689;56.878;60.672;2023-02-13T06:30:02;98375.22;;;22.31;16.66
62524;BME280;53689;56.878;60.672;2023-02-13T06:32:30;98364.63;;;22.30;17.47
62524;BME280;53689;56.878;60.672;2023-02-13T06:34:58;98370.00;;;22.23;17.57
62524;BME280;53689;56.878;60.672;2023-02-13T06:37:25;98371.97;;;22.08;17.38
62524;BME280;53689;56.878;60.672;2023-02-13T06:39:54;98363.16;;;22.27;16.79
62524;BME280;53689;56.878;60.672;2023-02-13T06:42:22;98366.72;;;22.35;17.59
62524;BME280;53689;56.878;60.672;2023-02-13T06:44:50;98370.47;;;22.34;17.39
62524;BME280;53689;56.878;60.672;2023-02-13T06:47:17;98352.38;;;22.27;17.69
62524;BME280;53689;56.878;60.672;2023-02-13T06:49:45;98355.94;;;22.35;17.44
62524;BME280;53689;56.878;60.672;2023-02-13T06:52:13;98347.63;;;22.29;17.65
62524;BME280;53689;56.878;60.672;2023-02-13T06:54:41;98350.53;;;22.35;17.16
62524;BME280;53689;56.878;60.672;2023-02-13T06:57:16;98350.66;;;22.55;17.75
62524;BME280;53689;56.878;60.672;2023-02-13T06:59:43;98340.00;;;22.40;17.18
62524;BME280;53689;56.878;60.672;2023-02-13T07:02:12;98339.59;;;22.43;18.17
62524;BME280;53689;56.878;60.672;2023-02-13T07:04:40;98335.81;;;22.30;17.92
62524;BME280;53689;56.878;60.672;2023-02-13T07:07:08;98329.13;;;22.26;17.22
62524;BME280;53689;56.878;60.672;2023-02-13T07:09:35;98331.03;;;22.33;17.40
62524;BME280;53689;56.878;60.672;2023-02-13T07:12:04;98334.38;;;22.35;19.55
62524;BME280;53689;56.878;60.672;2023-02-13T07:14:33;98330.59;;;22.22;18.60
62524;BME280;53689;56.878;60.672;2023-02-13T07:17:01;98337.09;;;22.41;18.93
62524;BME280;53689;56.878;60.672;2023-02-13T07:19:28;98325.25;;;22.42;18.20
62524;BME280;53689;56.878;60.672;2023-02-13T07:21:56;98315.94;;;22.45;18.09
62524;BME280;53689;56.878;60.672;2023-02-13T07:24:24;98304.72;;;22.41;19.54
62524;BME280;53689;56.878;60.672;2023-02-13T07:26:52;98312.63;;;22.43;18.27
62524;BME280;53689;56.878;60.672;2023-02-13T07:29:19;98309.16;;;22.49;17.77
62524;BME280;53689;56.878;60.672;2023-02-13T07:31:48;98306.19;;;22.44;18.19
62524;BME280;53689;56.878;60.672;2023-02-13T07:34:16;98311.75;;;22.36;18.21
62524;BME280;53689;56.878;60.672;2023-02-13T07:36:44;98306.97;;;22.38;18.37
62524;BME280;53689;56.878;60.672;2023-02-13T07:39:11;98305.31;;;22.37;17.83
62524;BME280;53689;56.878;60.672;2023-02-13T07:41:39;98307.47;;;22.48;18.24
62524;BME280;53689;56.878;60.672;2023-02-13T07:44:08;98306.22;;;22.51;17.04
62524;BME280;53689;56.878;60.672;2023-02-13T07:46:36;98306.22;;;22.51;18.05
62524;BME280;53689;56.878;60.672;2023-02-13T07:49:05;98303.34;;;22.52;18.66
62524;BME280;53689;56.878;60.672;2023-02-13T07:51:33;98302.25;;;22.47;17.43
62524;BME280;53689;56.878;60.672;2023-02-13T07:54:01;98304.94;;;22.47;17.80
62524;BME280;53689;56.878;60.672;2023-02-13T07:56:28;98299.09;;;22.36;19.16
62524;BME280;53689;56.878;60.672;2023-02-13T07:58:56;98294.75;;;22.42;19.19
62524;BME280;53689;56.878;60.672;2023-02-13T08:01:24;98298.50;;;22.41;18.52
62524;BME280;53689;56.878;60.672;2023-02-13T08:03:52;98288.34;;;22.43;17.97
62524;BME280;53689;56.878;60.672;2023-02-13T08:06:22;98286.31;;;22.52;18.53
62524;BME280;53689;56.878;60.672;2023-02-13T08:08:49;98277.13;;;22.46;18.34
62524;BME280;53689;56.878;60.672;2023-02-13T08:11:27;98274.56;;;22.24;19.16
62524;BME280;53689;56.878;60.672;2023-02-13T08:13:56;98269.44;;;22.36;18.85
62524;BME280;53689;56.878;60.672;2023-02-13T08:16:23;98281.28;;;22.42;18.51
62524;BME280;53689;56.878;60.672;2023-02-13T08:18:51;98274.22;;;22.41;18.41
62524;BME280;53689;56.878;60.672;2023-02-13T08:21:19;98270.13;;;22.52;17.89
62524;BME280;53689;56.878;60.672;2023-02-13T08:23:48;98263.44;;;22.48;18.58
62524;BME280;53689;56.878;60.672;2023-02-13T08:26:15;98271.28;;;22.36;18.63
62524;BME280;53689;56.878;60.672;2023-02-13T08:28:44;98263.44;;;22.41;19.86
62524;BME280;53689;56.878;60.672;2023-02-13T08:31:11;98265.72;;;22.44;19.42
62524;BME280;53689;56.878;60.672;2023-02-13T08:33:39;98253.69;;;22.40;18.84
62524;BME280;53689;56.878;60.672;2023-02-13T08:36:07;98258.44;;;22.38;18.48
62524;BME280;53689;56.878;60.672;2023-02-13T08:38:35;98250.56;;;22.43;17.97
62524;BME280;53689;56.878;60.672;2023-02-13T08:41:04;98248.97;;;22.62;18.00
62524;BME280;53689;56.878;60.672;2023-02-13T08:43:32;98248.09;;;22.48;19.10
62524;BME280;53689;56.878;60.672;2023-02-13T08:46:00;98245.59;;;22.40;18.53
62524;BME280;53689;56.878;60.672;2023-02-13T08:48:28;98244.56;;;22.41;18.38
62524;BME280;53689;56.878;60.672;2023-02-13T08:50:56;98237.19;;;22.14;18.57
62524;BME280;53689;56.878;60.672;2023-02-13T08:53:24;98236.03;;;22.30;18.09
62524;BME280;53689;56.878;60.672;2023-02-13T08:55:53;98231.06;;;22.41;18.14
62524;BME280;53689;56.878;60.672;2023-02-13T08:58:22;98228.75;;;22.38;19.14
62524;BME280;53689;56.878;60.672;2023-02-13T09:00:50;98221.50;;;22.45;18.48
62524;BME280;53689;56.878;60.672;2023-02-13T09:03:18;98215.09;;;22.46;18.66
62524;BME280;53689;56.878;60.672;2023-02-13T09:05:46;98214.03;;;22.40;18.78
62524;BME280;53689;56.878;60.672;2023-02-13T09:08:14;98211.97;;;22.42;19.08
62524;BME280;53689;56.878;60.672;2023-02-13T09:10:44;98205.34;;;22.45;18.58
62524;BME280;53689;56.878;60.672;2023-02-13T09:13:11;98209.75;;;22.53;17.83
62524;BME280;53689;56.878;60.672;2023-02-13T09:15:41;98207.47;;;22.83;16.81
62524;BME280;53689;56.878;60.672;2023-02-13T09:18:09;98204.75;;;22.50;17.99
62524;BME280;53689;56.878;60.672;2023-02-13T09:20:37;98200.81;;;22.52;19.10
62524;BME280;53689;56.878;60.672;2023-02-13T09:23:06;98200.97;;;22.44;18.54
62524;BME280;53689;56.878;60.672;2023-02-13T09:25:35;98202.63;;;22.45;18.32
62524;BME280;53689;56.878;60.672;2023-02-13T09:28:03;98197.28;;;22.52;18.51
62524;BME280;53689;56.878;60.672;2023-02-13T09:30:31;98189.81;;;22.54;18.94
62524;BME280;53689;56.878;60.672;2023-02-13T09:33:00;98178.41;;;22.65;18.14
62524;BME280;53689;56.878;60.672;2023-02-13T09:35:28;98187.06;;;22.47;18.47
62524;BME280;53689;56.878;60.672;2023-02-13T09:37:56;98182.97;;;22.51;18.83
62524;BME280;53689;56.878;60.672;2023-02-13T09:40:27;98186.06;;;22.48;19.02
62524;BME280;53689;56.878;60.672;2023-02-13T09:43:04;98183.75;;;22.45;19.57
62524;BME280;53689;56.878;60.672;2023-02-13T09:45:33;98178.78;;;22.49;18.98
62524;BME280;53689;56.878;60.672;2023-02-13T09:48:04;98175.06;;;22.56;17.98
62524;BME280;53689;56.878;60.672;2023-02-13T09:50:32;98176.09;;;22.62;19.00
62524;BME280;53689;56.878;60.672;2023-02-13T09:53:01;98165.97;;;22.57;18.52
62524;BME280;53689;56.878;60.672;2023-02-13T09:55:36;98174.25;;;22.56;18.52
62524;BME280;53689;56.878;60.672;2023-02-13T09:58:16;98170.53;;;22.57;19.19
62524;BME280;53689;56.878;60.672;2023-02-13T10:00:50;98157.88;;;22.57;19.26
62524;BME280;53689;56.878;60.672;2023-02-13T10:03:27;98162.22;;;22.58;18.61
62524;BME280;53689;56.878;60.672;2023-02-13T10:06:01;98148.31;;;22.55;18.13
62524;BME280;53689;56.878;60.672;2023-02-13T10:08:45;98155.34;;;22.76;18.51
62524;BME280;53689;56.878;60.672;2023-02-13T10:11:29;98146.66;;;22.61;18.23
62524;BME280;53689;56.878;60.672;2023-02-13T10:14:06;98148.94;;;22.64;19.56
62524;BME280;53689;56.878;60.672;2023-02-13T10:16:42;98151.63;;;22.57;19.06
62524;BME280;53689;56.878;60.672;2023-02-13T10:19:23;98151.81;;;22.49;19.62
62524;BME280;53689;56.878;60.672;2023-02-13T10:21:57;98147.69;;;22.59;19.57
62524;BME280;53689;56.878;60.672;2023-02-13T10:24:31;98143.28;;;22.45;19.15
62524;BME280;53689;56.878;60.672;2023-02-13T10:27:02;98134.41;;;22.65;18.95
62524;BME280;53689;56.878;60.672;2023-02-13T10:29:38;98139.38;;;22.61;19.81
62524;BME280;53689;56.878;60.672;2023-02-13T10:32:09;98138.56;;;22.61;19.30
62524;BME280;53689;56.878;60.672;2023-02-13T10:34:42;98127.34;;;22.50;21.13
62524;BME280;53689;56.878;60.672;2023-02-13T10:37:15;98132.31;;;22.40;23.02
62524;BME280;53689;56.878;60.672;2023-02-13T10:39:45;98132.31;;;22.53;21.90
62524;BME280;53689;56.878;60.672;2023-02-13T10:42:20;98122.38;;;22.61;19.58
62524;BME280;53689;56.878;60.672;2023-02-13T10:44:58;98121.31;;;22.68;19.71
62524;BME280;53689;56.878;60.672;2023-02-13T10:47:43;98124.22;;;22.60;19.72
62524;BME280;53689;56.878;60.672;2023-02-13T10:50:26;98137.69;;;22.40;20.73
62524;BME280;53689;56.878;60.672;2023-02-13T10:53:10;98142.91;;;22.55;20.15
62524;BME280;53689;56.878;60.672;2023-02-13T10:55:58;98132.31;;;22.53;20.36
62524;BME280;53689;56.878;60.672;2023-02-13T10:58:35;98131.72;;;22.78;19.81
62524;BME280;53689;56.878;60.672;2023-02-13T11:01:09;98126.94;;;22.60;19.77
62524;BME280;53689;56.878;60.672;2023-02-13T11:03:41;98135.44;;;22.57;19.19
62524;BME280;53689;56.878;60.672;2023-02-13T11:06:14;98144.16;;;22.72;18.78
62524;BME280;53689;56.878;60.672;2023-02-13T11:08:45;98135.22;;;22.85;18.68
62524;BME280;53689;56.878;60.672;2023-02-13T11:14:10;98137.72;;;22.60;19.83
62524;BME280;53689;56.878;60.672;2023-02-13T11:16:50;98134.00;;;22.68;20.02
62524;BME280;53689;56.878;60.672;2023-02-13T11:19:23;98147.69;;;22.66;20.35
62524;BME280;53689;56.878;60.672;2023-02-13T11:21:58;98134.81;;;22.62;19.95
62524;BME280;53689;56.878;60.672;2023-02-13T11:24:29;98140.59;;;22.45;20.94
62524;BME280;53689;56.878;60.672;2023-02-13T11:26:59;98132.31;;;22.53;20.68
62524;BME280;53689;56.878;60.672;2023-02-13T11:29:30;98146.66;;;22.67;20.35
62524;BME280;53689;56.878;60.672;2023-02-13T11:32:16;98147.50;;;22.75;19.52
62524;BME280;53689;56.878;60.672;2023-02-13T11:34:45;98136.47;;;22.76;19.35
62524;BME280;53689;56.878;60.672;2023-02-13T11:37:20;98133.38;;;22.72;20.01
62524;BME280;53689;56.878;60.672;2023-02-13T11:39:51;98135.25;;;22.65;20.35
62524;BME280;53689;56.878;60.672;2023-02-13T11:42:24;98131.69;;;22.65;20.24
62524;BME280;53689;56.878;60.672;2023-02-13T11:44:57;98122.38;;;22.61;20.05
62524;BME280;53689;56.878;60.672;2023-02-13T11:47:35;98117.78;;;22.61;20.16
62524;BME280;53689;56.878;60.672;2023-02-13T11:50:04;98119.88;;;22.59;20.48
62524;BME280;53689;56.878;60.672;2023-02-13T11:52:34;98118.41;;;22.56;20.66
62524;BME280;53689;56.878;60.672;2023-02-13T11:55:04;98127.53;;;22.55;20.30
62524;BME280;53689;56.878;60.672;2023-02-13T11:57:34;98121.53;;;22.73;19.67
62524;BME280;53689;56.878;60.672;2023-02-13T12:00:27;98128.81;;;22.59;20.30
62524;BME280;53689;56.878;60.672;2023-02-13T12:02:55;98123.19;;;22.61;20.03
62524;BME280;53689;56.878;60.672;2023-02-13T12:05:25;98126.53;;;22.63;20.38
62524;BME280;53689;56.878;60.672;2023-02-13T12:07:59;98116.97;;;22.61;19.90
62524;BME280;53689;56.878;60.672;2023-02-13T12:10:28;98126.91;;;22.40;20.67
62524;BME280;53689;56.878;60.672;2023-02-13T12:13:01;98125.63;;;22.15;20.60
62524;BME280;53689;56.878;60.672;2023-02-13T12:15:33;98127.53;;;22.42;20.32
62524;BME280;53689;56.878;60.672;2023-02-13T12:18:05;98115.72;;;22.50;19.81
62524;BME280;53689;56.878;60.672;2023-02-13T12:20:43;98118.03;;;22.53;20.06
62524;BME280;53689;56.878;60.672;2023-02-13T12:23:25;98117.19;;;22.52;19.60
62524;BME280;53689;56.878;60.672;2023-02-13T12:26:06;98118.63;;;22.55;20.36
62524;BME280;53689;56.878;60.672;2023-02-13T12:28:57;98113.63;;;22.52;20.15
62524;BME280;53689;56.878;60.672;2023-02-13T12:31:38;98116.56;;;22.57;19.92
62524;BME280;53689;56.878;60.672;2023-02-13T12:34:32;98119.06;;;22.58;19.67
62524;BME280;53689;56.878;60.672;2023-02-13T12:37:16;98118.84;;;22.60;19.70
62524;BME280;53689;56.878;60.672;2023-02-13T12:39:59;98111.59;;;22.61;19.66
62524;BME280;53689;56.878;60.672;2023-02-13T12:42:36;98114.28;;;22.61;19.52
62524;BME280;53689;56.878;60.672;2023-02-13T12:45:14;98112.41;;;22.54;20.04
62524;BME280;53689;56.878;60.672;2023-02-13T12:48:05;98112.00;;;22.57;20.29
62524;BME280;53689;56.878;60.672;2023-02-13T12:50:51;98102.03;;;22.58;20.00
62524;BME280;53689;56.878;60.672;2023-02-13T12:53:35;98102.88;;;22.58;19.64
62524;BME280;53689;56.878;60.672;2023-02-13T12:56:18;98103.06;;;22.57;19.25
62524;BME280;53689;56.878;60.672;2023-02-13T12:59:00;98104.72;;;22.58;20.09
62524;BME280;53689;56.878;60.672;2023-02-13T13:01:36;98107.22;;;22.59;19.66
62524;BME280;53689;56.878;60.672;2023-02-13T13:04:14;98101.22;;;22.57;19.54
62524;BME280;53689;56.878;60.672;2023-02-13T13:07:00;98108.28;;;22.58;19.77
62524;BME280;53689;56.878;60.672;2023-02-13T13:09:54;98107.22;;;22.59;19.72
62524;BME280;53689;56.878;60.672;2023-02-13T13:12:35;98106.19;;;22.61;19.95
62524;BME280;53689;56.878;60.672;2023-02-13T13:15:11;98101.81;;;22.59;19.94
62524;BME280;53689;56.878;60.672;2023-02-13T13:17:52;98106.19;;;22.61;19.87
62524;BME280;53689;56.878;60.672;2023-02-13T13:23:20;98105.78;;;22.57;19.99